Time;durP1;ratioP1;P1;durP2;ratioP2;P2;SDS_P1;SDS_P2;PMS_P1;PMS_P2;Temp;Humidity;BMP_temperature;BMP_pressure;BME280_temperature;BME280_humidity;BME280_pressure;Samples;Min_cycle;Max_cycle;Signal;HPM_P1;HPM_P2
2021/11/24 00:01:19;;;;;;;22.90;14.82;;;-1.30;99.90;;;;;;6075777;23;20308;-76
2021/11/24 00:03:47;;;;;;;16.75;12.93;;;-1.40;99.90;;;;;;6040395;23;20359;-76
2021/11/24 00:06:15;;;;;;;20.15;11.48;;;-1.30;99.90;;;;;;6072345;23;20041;-76
2021/11/24 00:08:43;;;;;;;14.38;10.85;;;-1.50;99.90;;;;;;6075045;23;20339;-76
2021/11/24 00:11:10;;;;;;;18.92;12.63;;;-1.50;99.90;;;;;;6067980;23;20031;-76
2021/11/24 00:13:38;;;;;;;27.30;12.15;;;-1.60;99.90;;;;;;6074665;23;20011;-76
2021/11/24 00:16:07;;;;;;;18.13;10.20;;;-1.70;99.90;;;;;;6076218;23;20026;-76
2021/11/24 00:18:35;;;;;;;15.70;10.07;;;-1.70;99.90;;;;;;6070613;23;20023;-76
2021/11/24 00:21:03;;;;;;;14.48;10.43;;;-1.80;99.90;;;;;;6075500;23;20015;-76
2021/11/24 00:23:31;;;;;;;19.10;10.57;;;-2.10;99.90;;;;;;6066191;23;20368;-76
2021/11/24 00:25:59;;;;;;;19.27;11.18;;;-2.40;99.90;;;;;;6073231;23;20031;-76
2021/11/24 00:28:26;;;;;;;15.27;9.40;;;-2.50;99.90;;;;;;6075842;23;20023;-76
2021/11/24 00:30:54;;;;;;;16.77;12.32;;;-2.40;99.90;;;;;;6069025;23;20059;-76
2021/11/24 00:33:22;;;;;;;18.80;11.93;;;-2.50;99.90;;;;;;6071083;23;20015;-76
2021/11/24 00:35:50;;;;;;;16.58;10.70;;;-2.30;99.90;;;;;;6064175;23;20065;-76
2021/11/24 00:38:18;;;;;;;16.73;11.35;;;-2.20;99.90;;;;;;6071297;23;20026;-76
2021/11/24 00:40:45;;;;;;;24.15;12.02;;;-2.20;99.90;;;;;;6075788;23;20015;-76
2021/11/24 00:43:13;;;;;;;18.00;11.02;;;-2.10;99.90;;;;;;6068224;23;20023;-76
2021/11/24 00:45:41;;;;;;;17.52;13.35;;;-2.10;99.90;;;;;;6074512;23;20014;-76
2021/11/24 00:48:09;;;;;;;19.05;12.13;;;-2.00;99.90;;;;;;6075327;23;20034;-76
2021/11/24 00:50:37;;;;;;;23.67;15.10;;;-2.00;99.90;;;;;;6070221;23;20030;-76
2021/11/24 00:53:05;;;;;;;21.58;14.15;;;-1.90;99.90;;;;;;6075607;23;20018;-76
2021/11/24 00:55:33;;;;;;;19.80;12.32;;;-2.00;99.90;;;;;;6065906;23;20458;-76
2021/11/24 00:58:01;;;;;;;18.98;11.85;;;-2.10;99.90;;;;;;6095116;23;20023;-76
2021/11/24 01:00:29;;;;;;;21.02;13.68;;;-2.20;99.90;;;;;;6073623;23;20019;-76
2021/11/24 01:02:57;;;;;;;17.35;11.77;;;-2.30;99.90;;;;;;6039435;23;20035;-76
2021/11/24 01:05:25;;;;;;;17.58;11.48;;;-2.30;99.90;;;;;;6075486;23;20469;-76
2021/11/24 01:07:52;;;;;;;22.85;13.77;;;-2.30;99.90;;;;;;6065056;23;20050;-76
2021/11/24 01:10:20;;;;;;;15.80;12.20;;;-2.30;99.90;;;;;;6070269;23;20031;-76
2021/11/24 01:12:49;;;;;;;15.05;9.35;;;-2.30;99.90;;;;;;6075684;23;20018;-76
2021/11/24 01:15:17;;;;;;;17.13;12.55;;;-2.30;99.90;;;;;;6067181;23;20057;-76
2021/11/24 01:17:45;;;;;;;16.40;11.90;;;-2.30;99.90;;;;;;6073790;23;20022;-76
2021/11/24 01:20:14;;;;;;;20.67;12.77;;;-2.30;99.90;;;;;;6040256;23;20019;-76
2021/11/24 01:22:42;;;;;;;16.92;10.35;;;-2.30;99.90;;;;;;6069694;23;20034;-76
2021/11/24 01:25:10;;;;;;;19.00;10.65;;;-2.30;99.90;;;;;;6039443;23;20023;-76
2021/11/24 01:27:40;;;;;;;17.92;8.98;;;-2.40;99.90;;;;;;6065837;23;20023;-76
2021/11/24 01:30:10;;;;;;;18.73;13.35;;;-2.40;99.90;;;;;;6071661;23;20461;-76
2021/11/24 01:32:41;;;;;;;20.48;11.70;;;-2.50;99.90;;;;;;6073032;23;20439;-76
2021/11/24 01:35:09;;;;;;;17.30;12.82;;;-2.50;99.90;;;;;;6067903;23;20085;-76
2021/11/24 01:37:37;;;;;;;14.00;10.45;;;-2.60;99.90;;;;;;6074120;23;20431;-76
2021/11/24 01:40:06;;;;;;;16.08;9.85;;;-2.50;99.90;;;;;;6074351;23;20010;-76
2021/11/24 01:42:33;;;;;;;18.65;12.00;;;-2.40;99.90;;;;;;6069972;23;20034;-76
2021/11/24 01:45:03;;;;;;;27.77;12.95;;;-2.30;99.90;;;;;;6075523;23;20015;-76
2021/11/24 01:47:31;;;;;;;23.02;12.93;;;-2.30;99.90;;;;;;6066714;23;20023;-76
2021/11/24 01:49:59;;;;;;;22.75;13.23;;;-2.20;99.90;;;;;;6072405;23;20023;-76
2021/11/24 01:52:26;;;;;;;18.77;12.60;;;-2.10;99.90;;;;;;6049617;23;20031;-76
2021/11/24 01:54:54;;;;;;;20.25;11.77;;;-2.20;99.90;;;;;;6067545;23;20027;-76
2021/11/24 01:57:24;;;;;;;25.35;14.40;;;-2.30;99.90;;;;;;6075076;23;20010;-76
2021/11/24 01:59:52;;;;;;;23.58;13.00;;;-2.30;99.90;;;;;;6064162;23;20067;-76
2021/11/24 02:02:20;;;;;;;22.98;13.52;;;-2.20;99.90;;;;;;6071018;23;20101;-76
2021/11/24 02:04:47;;;;;;;25.45;12.15;;;-2.10;99.90;;;;;;6074898;23;20482;-76
2021/11/24 02:07:15;;;;;;;32.30;14.32;;;-2.00;99.90;;;;;;6067169;23;20031;-76
2021/11/24 02:09:43;;;;;;;28.45;16.50;;;-1.90;99.90;;;;;;6072615;23;20026;-76
2021/11/24 02:12:13;;;;;;;31.27;14.13;;;-1.80;99.90;;;;;;6074701;23;20375;-76
2021/11/24 02:14:43;;;;;;;32.83;12.63;;;-1.90;99.90;;;;;;6069544;23;20037;-76
2021/11/24 02:17:14;;;;;;;25.85;14.57;;;-1.90;99.90;;;;;;6074449;23;20011;-76
2021/11/24 02:19:43;;;;;;;32.13;12.40;;;-1.80;99.90;;;;;;6064047;23;20027;-76
2021/11/24 02:22:11;;;;;;;52.35;17.02;;;-1.70;99.90;;;;;;6070064;23;20031;-76
2021/11/24 02:24:40;;;;;;;44.30;15.73;;;-1.70;99.90;;;;;;6073122;23;20011;-76
2021/11/24 02:27:10;;;;;;;59.42;19.70;;;-1.70;99.90;;;;;;6067002;23;20035;-76
2021/11/24 02:29:38;;;;;;;30.33;16.80;;;-1.70;99.90;;;;;;6073238;23;20026;-76
2021/11/24 02:32:07;;;;;;;48.97;15.52;;;-1.60;99.90;;;;;;6074702;23;20442;-76
2021/11/24 02:34:37;;;;;;;115.45;22.20;;;-1.60;99.90;;;;;;6064296;23;20058;-76
2021/11/24 02:37:09;;;;;;;55.00;16.48;;;-1.60;99.90;;;;;;6075249;23;20011;-76
2021/11/24 02:39:38;;;;;;;33.95;16.40;;;-1.60;99.90;;;;;;6064152;23;20339;-76
2021/11/24 02:42:06;;;;;;;119.32;14.60;;;-1.60;99.90;;;;;;6071369;23;20030;-76
2021/11/24 02:44:38;;;;;;;81.97;14.68;;;-1.60;99.90;;;;;;6075262;23;20443;-76
2021/11/24 02:47:15;;;;;;;42.50;17.15;;;-1.60;99.90;;;;;;6067662;23;20023;-76
2021/11/24 02:49:46;;;;;;;51.00;17.95;;;-1.60;99.90;;;;;;6073082;23;20022;-76
2021/11/24 02:52:15;;;;;;;153.50;22.92;;;-1.50;99.90;;;;;;6074911;23;20019;-76
2021/11/24 02:55:05;;;;;;;39.33;15.55;;;-1.50;99.90;;;;;;6068626;23;20030;-76
2021/11/24 02:57:39;;;;;;;37.63;17.50;;;-1.50;99.90;;;;;;6073392;23;20015;-76
2021/11/24 03:00:16;;;;;;;32.92;16.13;;;-1.50;99.90;;;;;;6074875;23;20018;-76
2021/11/24 03:02:45;;;;;;;15.98;9.88;;;-1.40;99.90;;;;;;6069531;23;20026;-76
2021/11/24 03:05:16;;;;;;;43.47;15.82;;;-1.40;99.90;;;;;;6076654;23;20011;-76
2021/11/24 03:07:43;;;;;;;43.17;15.90;;;-1.40;99.90;;;;;;6041078;23;20026;-76
2021/11/24 03:10:11;;;;;;;79.45;16.23;;;-1.40;99.90;;;;;;6046631;23;20031;-76
2021/11/24 03:12:39;;;;;;;32.40;11.55;;;-1.40;99.90;;;;;;6076255;23;20022;-76
2021/11/24 03:15:08;;;;;;;38.00;18.10;;;-1.40;99.90;;;;;;6069503;23;20481;-76
2021/11/24 03:17:37;;;;;;;26.45;13.50;;;-1.40;99.90;;;;;;6064697;23;20019;-76
2021/11/24 03:20:06;;;;;;;30.17;18.63;;;-1.30;99.90;;;;;;6098814;23;20435;-76
2021/11/24 03:22:52;;;;;;;47.60;14.57;;;-1.30;99.90;;;;;;6070720;23;20027;-76
2021/11/24 03:26:12;;;;;;;43.40;15.82;;;-1.30;99.90;;;;;;6073687;23;20034;-80
2021/11/24 03:29:30;;;;;;;26.92;16.33;;;-1.30;99.90;;;;;;6057010;23;20048;-79
2021/11/24 03:32:17;;;;;;;35.20;15.65;;;-1.30;99.90;;;;;;6068919;23;20343;-80
2021/11/24 03:34:45;;;;;;;38.58;14.95;;;-1.30;99.90;;;;;;6070388;23;20034;-80
2021/11/24 03:37:17;;;;;;;30.90;14.23;;;-1.30;99.90;;;;;;6041757;23;20019;-80
2021/11/24 03:39:46;;;;;;;41.40;12.10;;;-1.10;99.90;;;;;;6063659;23;20027;-80
2021/11/24 03:42:16;;;;;;;79.50;12.13;;;-1.20;99.90;;;;;;6064192;23;20023;-80
2021/11/24 03:44:44;;;;;;;21.77;10.45;;;-1.20;99.90;;;;;;6076631;23;20015;-80
2021/11/24 03:47:12;;;;;;;25.20;13.27;;;-1.20;99.90;;;;;;6040974;23;20049;-80
2021/11/24 03:49:40;;;;;;;23.05;11.40;;;-1.20;99.90;;;;;;6074753;23;20019;-80
2021/11/24 03:52:08;;;;;;;21.77;12.85;;;-1.20;99.90;;;;;;6076032;23;20019;-80
2021/11/24 03:54:37;;;;;;;24.67;10.48;;;-1.20;99.90;;;;;;6070517;23;20023;-80
2021/11/24 03:57:05;;;;;;;43.08;8.15;;;-1.20;99.90;;;;;;6074843;23;20011;-79
2021/11/24 03:59:33;;;;;;;14.98;8.13;;;-1.20;99.90;;;;;;6067100;23;20050;-80
2021/11/24 04:02:01;;;;;;;39.42;13.38;;;-1.30;99.90;;;;;;6073057;23;20050;-80
2021/11/24 04:04:28;;;;;;;31.80;9.65;;;-1.30;99.90;;;;;;6076248;23;20343;-80
2021/11/24 04:06:56;;;;;;;34.92;12.15;;;-1.30;99.90;;;;;;6044190;23;20411;-80
2021/11/24 04:09:24;;;;;;;37.83;12.30;;;-1.10;99.90;;;;;;6075481;23;20025;-80
2021/11/24 04:11:52;;;;;;;24.65;10.48;;;-1.20;99.90;;;;;;6064745;23;20019;-80
2021/11/24 04:14:19;;;;;;;55.13;12.68;;;-1.20;99.90;;;;;;6071656;23;20042;-80
2021/11/24 04:16:47;;;;;;;68.40;17.05;;;-1.20;99.90;;;;;;6076283;23;20014;-80
2021/11/24 04:19:15;;;;;;;50.42;11.85;;;-1.20;99.90;;;;;;6040206;23;20049;-80
2021/11/24 04:21:43;;;;;;;44.45;11.27;;;-1.20;99.90;;;;;;6048654;23;20018;-80
2021/11/24 04:24:11;;;;;;;90.75;13.52;;;-1.20;99.90;;;;;;6026846;23;20565;-80
2021/11/24 04:26:39;;;;;;;67.93;11.35;;;-1.10;99.90;;;;;;6066026;23;20018;-80
2021/11/24 04:29:06;;;;;;;41.72;10.30;;;-1.20;99.90;;;;;;6040821;23;20015;-80
2021/11/24 04:31:37;;;;;;;31.20;10.95;;;-1.10;99.90;;;;;;6040468;23;20023;-80
2021/11/24 04:34:05;;;;;;;107.10;14.57;;;-1.20;99.90;;;;;;6067792;23;20059;-80
2021/11/24 04:36:41;;;;;;;28.42;11.50;;;-1.20;99.90;;;;;;6041200;23;20459;-80
2021/11/24 04:39:11;;;;;;;36.58;11.00;;;-1.20;99.90;;;;;;6067891;23;20031;-80
2021/11/24 04:41:45;;;;;;;60.05;12.07;;;-1.20;99.90;;;;;;6073852;23;20019;-80
2021/11/24 04:44:13;;;;;;;25.73;12.55;;;-1.20;99.90;;;;;;6041076;23;20026;-80
2021/11/24 04:46:41;;;;;;;32.25;10.70;;;-1.20;99.90;;;;;;6070330;23;20023;-80
2021/11/24 04:49:09;;;;;;;37.03;10.88;;;-1.20;99.90;;;;;;6075674;23;20019;-80
2021/11/24 04:51:37;;;;;;;26.83;10.93;;;-1.20;99.90;;;;;;6066162;23;20022;-80
2021/11/24 04:54:04;;;;;;;25.40;11.25;;;-1.30;99.90;;;;;;6071153;23;20030;-80
2021/11/24 04:56:32;;;;;;;25.63;8.98;;;-1.20;99.90;;;;;;6075576;23;20022;-80
2021/11/24 04:59:02;;;;;;;27.48;10.23;;;-1.20;99.90;;;;;;6068912;23;20033;-80
2021/11/24 05:01:29;;;;;;;44.33;11.90;;;-1.20;99.90;;;;;;6074689;23;20565;-80
2021/11/24 05:03:57;;;;;;;21.20;9.93;;;-1.20;99.90;;;;;;6075555;23;20022;-80
2021/11/24 05:06:25;;;;;;;63.15;12.20;;;-1.10;99.90;;;;;;6070356;23;20034;-80
2021/11/24 05:08:53;;;;;;;24.40;8.20;;;-1.20;99.90;;;;;;6039956;23;20023;-80
2021/11/24 05:11:21;;;;;;;26.85;9.27;;;-1.20;99.90;;;;;;6066942;23;20027;-80
2021/11/24 05:13:59;;;;;;;33.83;8.52;;;-1.20;99.90;;;;;;6039573;23;20035;-80
2021/11/24 05:16:30;;;;;;;24.73;8.27;;;-1.20;99.90;;;;;;6075709;23;20465;-80
2021/11/24 05:18:59;;;;;;;24.90;10.10;;;-1.30;99.90;;;;;;6039203;23;20026;-80
2021/11/24 05:21:37;;;;;;;13.15;7.57;;;-1.30;99.90;;;;;;6039312;23;20030;-80
2021/11/24 05:24:05;;;;;;;89.47;14.93;;;-1.40;99.90;;;;;;6074825;23;20450;-80
2021/11/24 05:26:35;;;;;;;8.65;6.03;;;-1.40;99.90;;;;;;6070090;23;20022;-80
2021/11/24 05:29:03;;;;;;;19.63;8.25;;;-1.50;99.90;;;;;;6050146;23;20011;-80
2021/11/24 05:31:31;;;;;;;66.85;11.10;;;-1.60;99.90;;;;;;6066122;23;20023;-80
2021/11/24 05:34:00;;;;;;;25.60;10.93;;;-1.50;99.90;;;;;;6067233;23;20371;-80
2021/11/24 05:36:27;;;;;;;12.60;7.85;;;-1.50;99.90;;;;;;6075784;23;20018;-80
2021/11/24 05:38:56;;;;;;;21.15;8.88;;;-1.40;99.90;;;;;;6068359;23;20027;-81
2021/11/24 05:41:23;;;;;;;7.25;5.30;;;-1.50;99.90;;;;;;6075306;23;20022;-80
2021/11/24 05:43:56;;;;;;;31.52;9.00;;;-1.60;99.90;;;;;;6039139;23;20034;-81
2021/11/24 05:46:42;;;;;;;13.32;10.93;;;-1.60;99.90;;;;;;6092841;23;20031;-81
2021/11/24 05:49:10;;;;;;;4.10;3.72;;;-1.60;99.90;;;;;;6075348;23;20332;-81
2021/11/24 05:51:38;;;;;;;14.32;7.80;;;-1.70;99.90;;;;;;6064982;23;20329;-81
2021/11/24 05:54:06;;;;;;;17.70;5.65;;;-1.70;99.90;;;;;;6069570;23;20026;-81
2021/11/24 05:56:36;;;;;;;11.63;9.10;;;-1.70;99.90;;;;;;6074971;23;20026;-80
2021/11/24 05:59:06;;;;;;;18.00;7.95;;;-1.80;99.90;;;;;;6068068;23;20027;-79
2021/11/24 06:01:35;;;;;;;4.63;4.05;;;-1.70;99.90;;;;;;6016048;23;20023;-81
2021/11/24 06:04:04;;;;;;;54.17;8.05;;;-1.70;99.90;;;;;;6097060;23;20502;-81
2021/11/24 06:06:35;;;;;;;9.90;7.72;;;-1.70;99.90;;;;;;6070299;23;20027;-82
2021/11/24 06:09:07;;;;;;;26.02;7.28;;;-1.80;99.90;;;;;;6039047;23;20015;-81
2021/11/24 06:11:38;;;;;;;26.00;7.38;;;-1.70;99.90;;;;;;6064393;23;20033;-82
2021/11/24 06:14:06;;;;;;;15.52;8.73;;;-1.70;99.90;;;;;;6094174;23;20034;-78
2021/11/24 06:16:34;;;;;;;27.90;9.45;;;-1.60;99.90;;;;;;6040223;23;20023;-78
2021/11/24 06:19:02;;;;;;;21.80;8.18;;;-1.70;99.90;;;;;;6067919;23;20054;-77
2021/11/24 06:21:29;;;;;;;6.68;5.93;;;-1.80;99.90;;;;;;6073208;23;20015;-78
2021/11/24 06:23:57;;;;;;;13.90;9.05;;;-1.80;99.90;;;;;;6074590;23;20015;-78
2021/11/24 06:26:25;;;;;;;18.67;8.10;;;-1.80;99.90;;;;;;6070912;23;20023;-78
2021/11/24 06:28:53;;;;;;;33.92;9.13;;;-1.80;99.90;;;;;;6075113;23;20019;-77
2021/11/24 06:31:22;;;;;;;10.98;7.82;;;-1.80;99.90;;;;;;6066381;23;20042;-77
2021/11/24 06:33:51;;;;;;;8.38;5.35;;;-1.80;99.90;;;;;;6068022;23;20027;-78
2021/11/24 06:36:23;;;;;;;14.77;7.68;;;-1.90;99.90;;;;;;6071065;23;20019;-77
2021/11/24 06:38:52;;;;;;;15.52;9.55;;;-1.80;99.90;;;;;;6071017;23;20030;-76
2021/11/24 06:41:20;;;;;;;7.32;6.65;;;-1.80;99.90;;;;;;6078409;23;20015;-76
2021/11/24 06:43:48;;;;;;;49.72;11.77;;;-1.80;99.90;;;;;;6068229;23;20019;-75
2021/11/24 06:46:15;;;;;;;16.23;8.35;;;-1.80;99.90;;;;;;6074226;23;20026;-76
2021/11/24 06:48:43;;;;;;;32.85;9.32;;;-1.80;99.90;;;;;;6077092;23;20014;-75
2021/11/24 06:51:11;;;;;;;17.77;6.90;;;-1.80;99.90;;;;;;6069587;23;20026;-76
2021/11/24 06:53:40;;;;;;;64.13;11.18;;;-1.90;99.90;;;;;;6075682;23;20025;-76
2021/11/24 06:56:08;;;;;;;23.05;8.88;;;-1.90;99.90;;;;;;6067867;23;20026;-76
2021/11/24 06:58:36;;;;;;;10.73;5.70;;;-2.00;99.90;;;;;;6072580;23;20354;-75
2021/11/24 07:01:04;;;;;;;55.88;10.38;;;-2.00;99.90;;;;;;6077419;23;20025;-75
2021/11/24 07:03:44;;;;;;;14.85;10.63;;;-2.00;99.90;;;;;;6068224;23;20082;-75
2021/11/24 07:06:12;;;;;;;46.60;9.40;;;-2.00;99.90;;;;;;6074418;23;20027;-75
2021/11/24 07:08:39;;;;;;;48.65;6.88;;;-2.00;99.90;;;;;;6018346;23;20029;-75
2021/11/24 07:11:07;;;;;;;52.67;9.40;;;-2.10;99.90;;;;;;6070407;23;20042;-76
2021/11/24 07:13:35;;;;;;;17.70;7.97;;;-2.10;99.90;;;;;;6076267;23;20011;-76
2021/11/24 07:16:03;;;;;;;22.35;7.28;;;-2.00;99.90;;;;;;6078123;23;20022;-76
2021/11/24 07:18:31;;;;;;;37.75;6.18;;;-2.00;99.90;;;;;;6073074;23;20022;-76
2021/11/24 07:20:58;;;;;;;23.40;7.75;;;-1.90;99.90;;;;;;6077604;23;20011;-76
2021/11/24 07:23:26;;;;;;;9.38;4.82;;;-2.00;99.90;;;;;;6068574;23;20580;-78
2021/11/24 07:25:54;;;;;;;36.92;9.23;;;-2.00;99.90;;;;;;6075602;23;20450;-77
2021/11/24 07:28:22;;;;;;;30.80;9.52;;;-1.90;99.90;;;;;;6052328;23;20014;-77
2021/11/24 07:30:49;;;;;;;40.95;9.85;;;-1.90;99.90;;;;;;6071372;23;20033;-77
2021/11/24 07:33:17;;;;;;;21.52;6.75;;;-1.80;99.90;;;;;;6073480;23;20038;-77
2021/11/24 07:35:45;;;;;;;61.25;8.05;;;-1.70;99.90;;;;;;6068473;23;20030;-77
2021/11/24 07:38:12;;;;;;;30.98;9.93;;;-1.70;99.90;;;;;;6046738;23;20030;-77
2021/11/24 07:40:40;;;;;;;9.43;7.18;;;-1.70;99.90;;;;;;6077405;23;20015;-77
2021/11/24 07:43:09;;;;;;;16.15;7.93;;;-1.70;99.90;;;;;;6070357;23;20034;-77
2021/11/24 07:45:37;;;;;;;14.32;6.70;;;-1.60;99.90;;;;;;6051364;23;20015;-77
2021/11/24 07:48:05;;;;;;;14.55;7.05;;;-1.60;99.90;;;;;;6077381;23;20018;-77
2021/11/24 07:50:33;;;;;;;45.72;9.13;;;-1.60;99.90;;;;;;6070362;23;20019;-77
2021/11/24 07:53:01;;;;;;;7.10;6.43;;;-1.50;99.90;;;;;;6075837;23;20018;-77
2021/11/24 07:55:29;;;;;;;12.63;8.65;;;-1.50;99.90;;;;;;6088722;23;20038;-77
2021/11/24 07:57:56;;;;;;;18.65;6.20;;;-1.50;99.90;;;;;;6073455;23;20038;-77
2021/11/24 08:00:24;;;;;;;15.98;9.00;;;-1.40;99.90;;;;;;6075448;23;20023;-77
2021/11/24 08:02:52;;;;;;;21.73;7.13;;;-1.40;99.90;;;;;;6069821;23;20355;-76
2021/11/24 08:05:20;;;;;;;65.82;10.32;;;-1.40;99.90;;;;;;6075443;23;20037;-78
2021/11/24 08:07:55;;;;;;;47.35;10.45;;;-1.40;99.90;;;;;;6063862;23;20022;-77
2021/11/24 08:10:23;;;;;;;8.45;7.22;;;-1.50;99.90;;;;;;6045845;23;20039;-78
2021/11/24 08:12:51;;;;;;;42.65;5.68;;;-1.50;99.90;;;;;;6076204;23;20018;-78
2021/11/24 08:15:38;;;;;;;37.17;7.85;;;-1.50;99.90;;;;;;6056316;23;20038;-92
2021/11/24 08:18:18;;;;;;;18.10;7.65;;;-1.50;99.90;;;;;;6064454;23;20027;-92
2021/11/24 08:20:56;;;;;;;35.05;8.48;;;-1.40;99.90;;;;;;6042474;23;20022;-92
2021/11/24 08:23:29;;;;;;;8.25;6.47;;;-1.40;99.90;;;;;;6038250;23;20038;-76
2021/11/24 08:25:58;;;;;;;3.47;3.28;;;-1.40;99.90;;;;;;6073295;23;20037;-76
2021/11/24 08:28:26;;;;;;;38.60;7.85;;;-1.40;99.90;;;;;;6076307;23;20018;-76
2021/11/24 08:30:53;;;;;;;16.00;9.40;;;-1.30;99.90;;;;;;6068553;23;20038;-76
2021/11/24 08:33:21;;;;;;;11.48;7.15;;;-1.20;99.90;;;;;;6071408;23;20443;-76
2021/11/24 08:35:49;;;;;;;11.65;7.43;;;-1.20;99.90;;;;;;6066146;23;20105;-76
2021/11/24 08:38:18;;;;;;;4.72;3.42;;;-1.20;99.90;;;;;;6071574;23;20052;-76
2021/11/24 08:40:46;;;;;;;7.13;4.85;;;-1.20;99.90;;;;;;6075534;23;20015;-76
2021/11/24 08:43:14;;;;;;;17.23;6.43;;;-1.20;99.90;;;;;;6067964;23;20339;-76
2021/11/24 08:45:42;;;;;;;10.90;6.03;;;-1.20;99.90;;;;;;6040014;23;20039;-75
2021/11/24 08:48:10;;;;;;;7.10;6.28;;;-1.20;99.90;;;;;;6076031;23;20011;-76
2021/11/24 08:50:38;;;;;;;7.65;5.57;;;-1.10;99.90;;;;;;6070186;23;20038;-76
2021/11/24 08:53:06;;;;;;;12.32;7.22;;;-1.10;99.90;;;;;;6040696;23;20026;-77
2021/11/24 08:55:34;;;;;;;5.35;4.82;;;-1.00;99.90;;;;;;6065936;23;20023;-77
2021/11/24 08:58:02;;;;;;;8.95;8.10;;;-1.00;99.90;;;;;;6072587;23;20042;-77
2021/11/24 09:00:31;;;;;;;6.32;5.07;;;-1.00;99.90;;;;;;6097248;23;20034;-77
2021/11/24 09:03:00;;;;;;;9.23;5.20;;;-1.00;99.90;;;;;;6090627;23;20359;-77
2021/11/24 09:05:28;;;;;;;18.20;7.13;;;-1.10;99.90;;;;;;6074784;23;20343;-77
2021/11/24 09:07:56;;;;;;;7.80;6.40;;;-1.00;99.90;;;;;;6075975;23;20015;-77
2021/11/24 09:10:26;;;;;;;3.85;2.67;;;-1.10;99.90;;;;;;6069919;23;20022;-77
2021/11/24 09:12:55;;;;;;;13.27;8.75;;;-1.10;99.90;;;;;;6075850;23;20021;-77
2021/11/24 09:15:24;;;;;;;10.52;7.03;;;-1.10;99.90;;;;;;6041573;23;20026;-77
2021/11/24 09:18:12;;;;;;;12.05;6.05;;;-1.00;99.90;;;;;;6072153;23;20048;-77
2021/11/24 09:20:40;;;;;;;16.92;7.55;;;-1.00;99.90;;;;;;6075240;23;20021;-77
2021/11/24 09:23:08;;;;;;;13.05;7.68;;;-1.00;99.90;;;;;;6067824;23;20034;-78
2021/11/24 09:25:38;;;;;;;9.93;4.97;;;-0.90;99.90;;;;;;6073824;23;20015;-77
2021/11/24 09:28:09;;;;;;;12.15;5.68;;;-1.00;99.90;;;;;;6075581;23;20022;-77
2021/11/24 09:30:39;;;;;;;23.17;7.93;;;-0.90;99.90;;;;;;6069860;23;20022;-77
2021/11/24 09:33:08;;;;;;;19.77;11.43;;;-0.80;99.90;;;;;;6071314;23;20262;-77
2021/11/24 09:35:36;;;;;;;20.00;8.05;;;-0.80;99.90;;;;;;6066195;23;20027;-77
2021/11/24 09:38:05;;;;;;;15.93;9.80;;;-0.80;99.90;;;;;;6072716;23;20866;-77
2021/11/24 09:40:34;;;;;;;9.60;7.20;;;-0.80;99.90;;;;;;6065135;23;20018;-77
2021/11/24 09:43:06;;;;;;;10.50;7.28;;;-0.80;99.90;;;;;;6068541;23;20042;-77
2021/11/24 09:45:36;;;;;;;11.25;8.60;;;-0.70;99.90;;;;;;6096436;23;20320;-77
2021/11/24 09:48:04;;;;;;;9.18;5.82;;;-0.70;99.90;;;;;;6075354;23;20027;-77
2021/11/24 09:50:36;;;;;;;9.98;7.55;;;-0.70;99.90;;;;;;6070212;23;20332;-77
2021/11/24 09:53:06;;;;;;;15.68;8.05;;;-0.70;99.90;;;;;;6075394;23;20026;-77
2021/11/24 09:55:37;;;;;;;39.60;10.00;;;-0.70;99.90;;;;;;6063553;23;20033;-77
2021/11/24 09:58:06;;;;;;;12.05;8.88;;;-0.50;99.90;;;;;;6095076;23;20034;-77
2021/11/24 10:00:37;;;;;;;16.42;9.27;;;-0.50;99.90;;;;;;6074874;23;20019;-78
2021/11/24 10:03:06;;;;;;;13.73;8.37;;;-0.50;99.90;;;;;;6089969;23;20034;-77
2021/11/24 10:05:35;;;;;;;9.07;5.95;;;-0.50;99.90;;;;;;6015505;23;20025;-77
2021/11/24 10:08:04;;;;;;;6.95;6.32;;;-0.60;99.90;;;;;;6016567;23;20492;-77
2021/11/24 10:10:33;;;;;;;10.52;8.93;;;-0.60;99.90;;;;;;6069240;23;20022;-77
2021/11/24 10:13:01;;;;;;;15.13;9.32;;;-0.70;99.90;;;;;;6049543;23;20018;-77
2021/11/24 10:15:47;;;;;;;15.82;9.68;;;-0.70;99.90;;;;;;6066609;23;20369;-77
2021/11/24 10:18:16;;;;;;;8.52;6.60;;;-0.70;99.90;;;;;;6069767;23;20019;-77
2021/11/24 10:20:49;;;;;;;4.05;3.72;;;-0.60;99.90;;;;;;6074407;23;20015;-77
2021/11/24 10:23:32;;;;;;;13.60;8.77;;;-0.70;99.90;;;;;;6064732;23;20030;-77
2021/11/24 10:26:31;;;;;;;10.05;5.57;;;-0.70;99.90;;;;;;6046907;23;20026;-77
2021/11/24 10:29:15;;;;;;;15.45;6.97;;;-0.80;99.90;;;;;;6065247;23;20015;-77
2021/11/24 10:31:54;;;;;;;13.68;8.80;;;-0.80;99.90;;;;;;6065006;23;20023;-77
2021/11/24 10:34:34;;;;;;;16.83;6.53;;;-0.70;99.90;;;;;;6065578;23;20025;-77
2021/11/24 10:37:09;;;;;;;16.80;8.60;;;-0.70;99.90;;;;;;6075231;23;20015;-77
2021/11/24 10:39:47;;;;;;;5.50;5.00;;;-0.60;99.90;;;;;;6087231;23;20038;-77
2021/11/24 10:42:21;;;;;;;9.00;6.63;;;-0.70;99.90;;;;;;6070958;23;20038;-77
2021/11/24 10:44:52;;;;;;;11.48;7.50;;;-0.70;99.90;;;;;;6039968;23;20462;-77
2021/11/24 10:47:21;;;;;;;16.30;8.38;;;-0.70;99.90;;;;;;6065762;23;20031;-77
2021/11/24 10:49:54;;;;;;;11.13;6.82;;;-0.70;99.90;;;;;;6038845;23;20738;-76
2021/11/24 10:52:30;;;;;;;16.45;7.60;;;-0.70;99.90;;;;;;6048935;23;20337;-77
2021/11/24 10:55:13;;;;;;;17.35;7.88;;;-0.70;99.90;;;;;;6065375;23;20343;-77
2021/11/24 10:57:59;;;;;;;11.10;7.43;;;-0.70;99.90;;;;;;6073337;23;20019;-77
2021/11/24 11:00:39;;;;;;;15.23;9.15;;;-0.70;99.90;;;;;;6049616;23;20014;-77
2021/11/24 11:03:41;;;;;;;17.55;9.02;;;-0.60;99.90;;;;;;6066162;23;20022;-77
2021/11/24 11:06:26;;;;;;;14.77;9.10;;;-0.60;99.90;;;;;;6038831;23;20023;-77
2021/11/24 11:08:59;;;;;;;11.82;8.35;;;-0.60;99.90;;;;;;6062192;23;20038;-77
2021/11/24 11:11:32;;;;;;;13.90;10.23;;;-0.60;99.90;;;;;;6065827;23;20030;-77
2021/11/24 11:14:25;;;;;;;14.68;8.48;;;-0.60;99.90;;;;;;6046670;23;20027;-77
2021/11/24 11:16:55;;;;;;;17.65;9.75;;;-0.50;99.90;;;;;;6074762;23;20313;-77
2021/11/24 11:19:47;;;;;;;13.18;8.00;;;-0.50;99.90;;;;;;6065865;23;20034;-77
2021/11/24 11:22:19;;;;;;;12.48;6.85;;;-0.50;99.90;;;;;;6070867;23;20027;-77
2021/11/24 11:24:49;;;;;;;6.10;4.18;;;-0.50;99.90;;;;;;6075230;23;20428;-77
2021/11/24 11:27:19;;;;;;;12.30;8.60;;;-0.60;99.90;;;;;;6068337;23;20045;-77
2021/11/24 11:29:48;;;;;;;14.05;7.75;;;-0.70;99.90;;;;;;6096194;23;20055;-77
2021/11/24 11:32:17;;;;;;;10.57;6.75;;;-0.60;99.90;;;;;;6040945;23;20025;-77
2021/11/24 11:34:45;;;;;;;13.88;8.35;;;-0.50;99.90;;;;;;6070259;23;20031;-77
2021/11/24 11:37:17;;;;;;;16.00;9.02;;;-0.60;99.90;;;;;;6076735;23;20018;-77
2021/11/24 11:39:46;;;;;;;14.05;9.65;;;-0.60;99.90;;;;;;6065981;23;20034;-77
2021/11/24 11:42:17;;;;;;;4.93;3.08;;;-0.60;99.90;;;;;;6071802;23;20022;-77
2021/11/24 11:45:09;;;;;;;6.78;5.47;;;-0.60;99.90;;;;;;6041547;23;20062;-77
2021/11/24 11:47:55;;;;;;;12.15;8.30;;;-0.60;99.90;;;;;;6067357;23;20027;-77
2021/11/24 11:50:38;;;;;;;12.60;8.07;;;-0.60;99.90;;;;;;6071521;23;20023;-77
2021/11/24 11:53:14;;;;;;;4.70;4.20;;;-0.60;99.90;;;;;;6076472;23;20018;-77
2021/11/24 11:55:42;;;;;;;9.05;6.55;;;-0.60;99.90;;;;;;6066392;23;20027;-77
2021/11/24 11:58:26;;;;;;;11.63;7.38;;;-0.60;99.90;;;;;;6073004;23;20023;-77
2021/11/24 12:01:14;;;;;;;12.02;7.40;;;-0.60;99.90;;;;;;6076035;23;20022;-77
2021/11/24 12:03:59;;;;;;;15.85;7.72;;;-0.60;99.90;;;;;;6041416;23;20027;-77
2021/11/24 12:06:30;;;;;;;14.48;8.13;;;-0.60;99.90;;;;;;6071711;23;20031;-77
2021/11/24 12:09:07;;;;;;;13.05;6.32;;;-0.60;99.90;;;;;;6075530;23;20022;-77
2021/11/24 12:12:09;;;;;;;9.48;6.07;;;-0.70;99.90;;;;;;6066338;23;20474;-77
2021/11/24 12:14:50;;;;;;;11.35;7.68;;;-0.70;99.90;;;;;;6070995;23;20029;-77
2021/11/24 12:17:47;;;;;;;10.77;6.57;;;-0.70;99.90;;;;;;6066448;23;20019;-77
2021/11/24 12:20:16;;;;;;;11.50;6.85;;;-0.70;99.90;;;;;;6075511;23;20019;-77
2021/11/24 12:25:20;;;;;;;12.77;7.50;;;-0.70;99.90;;;;;;6075363;23;20019;-77
2021/11/24 12:27:54;;;;;;;6.65;5.95;;;-0.70;99.90;;;;;;6066282;23;20034;-77
2021/11/24 12:30:38;;;;;;;9.55;7.05;;;-0.60;99.90;;;;;;6071633;23;20030;-77
2021/11/24 12:33:13;;;;;;;11.90;7.45;;;-0.70;99.90;;;;;;6072710;23;20027;-77
2021/11/24 12:35:52;;;;;;;5.13;4.18;;;-0.80;99.90;;;;;;6066640;23;20320;-77
2021/11/24 12:38:33;;;;;;;11.98;9.73;;;-0.80;99.90;;;;;;6071386;23;20334;-77
2021/11/24 12:41:13;;;;;;;18.30;13.68;;;-0.80;99.90;;;;;;6075904;23;20336;-77
2021/11/24 12:43:49;;;;;;;14.80;9.40;;;-0.80;99.90;;;;;;6066809;23;20355;-77
2021/11/24 12:46:23;;;;;;;16.42;9.00;;;-0.70;99.90;;;;;;6072206;23;20034;-77
2021/11/24 12:49:10;;;;;;;7.40;6.43;;;-0.70;99.90;;;;;;6075852;23;20018;-77
2021/11/24 12:51:47;;;;;;;11.60;8.82;;;-0.70;99.90;;;;;;6065507;23;20030;-77
2021/11/24 12:54:37;;;;;;;10.65;8.57;;;-0.70;99.90;;;;;;6070346;23;20351;-77
2021/11/24 12:57:09;;;;;;;14.50;7.68;;;-0.70;99.90;;;;;;6075528;23;20020;-77